createdAt,value
2022-10-13T00:02:00.975Z,10.15
2022-10-13T00:04:30.539Z,10.59
2022-10-13T00:07:00.542Z,10.65
2022-10-13T00:09:30.130Z,10.70
2022-10-13T00:12:00.168Z,10.58
2022-10-13T00:14:30.322Z,10.55
2022-10-13T00:17:01.953Z,10.56
2022-10-13T00:19:31.801Z,10.56
2022-10-13T00:22:01.566Z,10.65
2022-10-13T00:24:31.424Z,10.71
2022-10-13T00:27:01.089Z,10.74
2022-10-13T00:29:30.645Z,10.80
2022-10-13T00:32:00.203Z,10.74
2022-10-13T00:34:31.457Z,10.72
2022-10-13T00:37:01.324Z,10.74
2022-10-13T00:39:31.171Z,10.74
2022-10-13T00:42:01.089Z,10.72
2022-10-13T00:44:50.540Z,10.68
2022-10-13T00:47:20.715Z,10.67
2022-10-13T00:49:52.587Z,10.59
2022-10-13T00:52:22.953Z,10.73
2022-10-13T00:54:53.011Z,10.59
2022-10-13T00:57:26.068Z,10.67
2022-10-13T00:59:57.124Z,10.66
2022-10-13T01:02:28.922Z,10.77
2022-10-13T01:05:01.020Z,10.66
2022-10-13T01:07:30.960Z,10.75
2022-10-13T01:10:01.150Z,10.77
2022-10-13T01:12:41.433Z,10.84
2022-10-13T01:15:13.282Z,10.87
2022-10-13T01:17:49.785Z,10.82
2022-10-13T01:20:38.560Z,10.86
2022-10-13T01:23:19.568Z,10.80
2022-10-13T01:26:10.114Z,10.85
2022-10-13T01:28:55.840Z,10.89
2022-10-13T01:31:29.267Z,10.87
2022-10-13T01:34:04.904Z,10.76
2022-10-13T01:36:38.926Z,10.87
2022-10-13T01:39:10.650Z,10.80
2022-10-13T01:41:41.471Z,10.90
2022-10-13T01:44:16.284Z,10.95
2022-10-13T01:46:48.663Z,11.13
2022-10-13T01:49:20.352Z,11.03
2022-10-13T01:51:50.592Z,11.00
2022-10-13T01:54:20.108Z,10.88
2022-10-13T01:56:53.155Z,10.87
2022-10-13T01:59:24.463Z,10.96
2022-10-13T02:01:59.448Z,10.90
2022-10-13T02:04:35.515Z,10.98
2022-10-13T02:07:11.051Z,10.79
2022-10-13T02:09:45.081Z,10.93
2022-10-13T02:12:20.145Z,11.01
2022-10-13T02:14:51.681Z,10.87
2022-10-13T02:17:23.235Z,10.83
2022-10-13T02:19:52.855Z,10.93
2022-10-13T02:22:24.295Z,10.96
2022-10-13T02:24:54.340Z,10.94
2022-10-13T02:27:24.290Z,10.96
2022-10-13T02:29:54.943Z,10.76
2022-10-13T02:32:25.887Z,10.84
2022-10-13T02:34:55.610Z,10.87
2022-10-13T02:37:25.988Z,10.84
2022-10-13T02:39:55.547Z,10.83
2022-10-13T02:42:25.338Z,10.75
2022-10-13T02:44:54.918Z,10.69
2022-10-13T02:47:25.914Z,10.67
2022-10-13T02:49:55.906Z,10.65
2022-10-13T02:52:25.608Z,10.67
2022-10-13T02:54:55.131Z,10.57
2022-10-13T02:57:24.787Z,10.56
2022-10-13T02:59:54.551Z,10.47
2022-10-13T03:02:24.460Z,10.46
2022-10-13T03:04:56.108Z,10.40
2022-10-13T03:07:25.642Z,10.31
2022-10-13T03:09:55.200Z,10.22
2022-10-13T03:12:25.456Z,10.22
2022-10-13T03:14:55.371Z,10.28
2022-10-13T03:17:28.325Z,10.17
2022-10-13T03:19:59.759Z,10.17
2022-10-13T03:22:32.039Z,10.06
2022-10-13T03:25:01.678Z,10.09
2022-10-13T03:27:32.622Z,9.99
2022-10-13T03:30:02.314Z,9.88
2022-10-13T03:32:33.270Z,9.80
2022-10-13T03:35:04.376Z,9.81
2022-10-13T03:37:34.021Z,9.68
2022-10-13T03:40:04.007Z,9.71
2022-10-13T03:42:33.615Z,9.84
2022-10-13T03:45:03.217Z,9.92
2022-10-13T03:47:32.787Z,9.80
2022-10-13T03:50:02.423Z,9.86
2022-10-13T03:52:33.487Z,9.80
2022-10-13T03:55:03.065Z,9.88
2022-10-13T03:57:32.722Z,9.92
2022-10-13T04:00:03.909Z,9.83
2022-10-13T04:02:33.479Z,9.90
2022-10-13T04:05:03.053Z,9.91
2022-10-13T04:07:34.125Z,9.74
2022-10-13T04:10:07.858Z,9.69
2022-10-13T04:12:41.675Z,9.66
2022-10-13T04:15:12.413Z,9.73
2022-10-13T04:17:42.589Z,9.80
2022-10-13T04:20:12.704Z,9.78
2022-10-13T04:22:43.691Z,9.66
2022-10-13T04:25:13.320Z,9.74
2022-10-13T04:27:42.923Z,9.65
2022-10-13T04:30:13.645Z,9.71
2022-10-13T04:32:43.654Z,9.78
2022-10-13T04:35:13.239Z,9.83
2022-10-13T04:37:45.541Z,9.66
2022-10-13T04:40:15.411Z,9.68
2022-10-13T04:42:45.053Z,9.52
2022-10-13T04:45:14.582Z,9.60
2022-10-13T04:47:44.415Z,9.63
2022-10-13T04:50:14.018Z,9.56
2022-10-13T04:52:44.919Z,9.51
2022-10-13T04:55:14.756Z,9.55
2022-10-13T04:57:44.567Z,9.23
2022-10-13T05:00:14.930Z,9.32
2022-10-13T05:02:44.671Z,9.22
2022-10-13T05:05:14.518Z,9.39
2022-10-13T05:07:45.421Z,9.32
2022-10-13T05:10:15.256Z,9.50
2022-10-13T05:12:45.671Z,9.41
2022-10-13T05:15:16.325Z,9.47
2022-10-13T05:17:46.427Z,9.73
2022-10-13T05:20:17.719Z,9.70
2022-10-13T05:22:48.705Z,9.85
2022-10-13T05:25:18.520Z,9.88
2022-10-13T05:27:48.250Z,10.04
2022-10-13T05:30:17.832Z,10.06
2022-10-13T05:32:51.475Z,10.22
2022-10-13T05:35:23.210Z,10.27
2022-10-13T05:37:54.188Z,10.38
2022-10-13T05:40:24.087Z,10.39
2022-10-13T05:42:54.591Z,10.50
2022-10-13T05:45:24.586Z,10.50
2022-10-13T05:47:54.307Z,10.59
2022-10-13T05:50:24.057Z,10.59
2022-10-13T05:52:55.058Z,10.66
2022-10-13T05:55:24.704Z,10.70
2022-10-13T05:57:54.300Z,10.80
2022-10-13T06:00:24.840Z,10.82
2022-10-13T06:02:56.858Z,10.94
2022-10-13T06:05:27.697Z,11.06
2022-10-13T06:07:58.746Z,11.14
2022-10-13T06:10:28.441Z,11.22
2022-10-13T06:12:59.371Z,11.39
2022-10-13T06:15:29.788Z,11.47
2022-10-13T06:17:59.664Z,11.59
2022-10-13T06:20:29.557Z,11.77
2022-10-13T06:23:00.752Z,11.91
2022-10-13T06:25:30.634Z,11.93
2022-10-13T06:28:01.078Z,12.04
2022-10-13T06:30:30.674Z,12.12
2022-10-13T06:33:00.505Z,12.16
2022-10-13T06:35:30.066Z,12.27
2022-10-13T06:38:01.398Z,12.32
2022-10-13T06:40:31.012Z,12.42
2022-10-13T06:43:00.808Z,12.53
2022-10-13T06:45:30.577Z,12.64
2022-10-13T06:48:00.473Z,12.75
2022-10-13T06:50:32.273Z,12.78
2022-10-13T06:53:03.542Z,12.83
2022-10-13T06:55:33.238Z,12.93
2022-10-13T06:58:03.113Z,13.01
2022-10-13T07:00:33.234Z,13.16
2022-10-13T07:03:02.872Z,13.14
2022-10-13T07:05:33.029Z,13.06
2022-10-13T07:08:04.028Z,13.03
2022-10-13T07:10:33.720Z,13.19
2022-10-13T07:13:04.996Z,13.33
2022-10-13T07:15:35.374Z,13.39
2022-10-13T07:18:05.052Z,13.40
2022-10-13T07:20:35.213Z,13.63
2022-10-13T07:23:06.188Z,13.75
2022-10-13T07:25:35.843Z,13.78
2022-10-13T07:28:05.654Z,13.93
2022-10-13T07:30:36.496Z,14.04
2022-10-13T07:33:07.480Z,14.21
2022-10-13T07:35:39.703Z,14.14
2022-10-13T07:38:12.723Z,14.22
2022-10-13T07:40:42.250Z,14.24
2022-10-13T07:43:11.757Z,14.40
2022-10-13T07:45:41.459Z,14.41
2022-10-13T07:48:11.748Z,14.43
2022-10-13T07:50:41.363Z,14.51
2022-10-13T07:53:12.433Z,14.60
2022-10-13T07:55:41.999Z,14.74
2022-10-13T07:58:11.803Z,14.85
2022-10-13T08:00:41.751Z,14.94
2022-10-13T08:03:11.709Z,14.98
2022-10-13T08:05:41.407Z,15.11
2022-10-13T08:08:12.325Z,15.04
2022-10-13T08:10:42.134Z,15.21
2022-10-13T08:13:12.760Z,15.13
2022-10-13T08:15:43.028Z,15.21
2022-10-13T08:18:13.378Z,15.23
2022-10-13T08:20:44.008Z,15.15
2022-10-13T08:23:15.031Z,15.15
2022-10-13T08:25:45.015Z,15.42
2022-10-13T08:28:18.134Z,15.48
2022-10-13T08:30:47.975Z,15.58
2022-10-13T08:33:18.866Z,15.58
2022-10-13T08:35:48.474Z,15.66
2022-10-13T08:38:19.523Z,15.64
2022-10-13T08:40:49.297Z,15.62
2022-10-13T08:43:19.971Z,15.75
2022-10-13T08:45:51.007Z,15.81
2022-10-13T08:48:23.708Z,15.80
2022-10-13T08:50:55.815Z,15.83
2022-10-13T08:53:29.281Z,15.92
2022-10-13T08:56:00.961Z,15.98
2022-10-13T08:58:32.208Z,15.99
2022-10-13T09:01:12.328Z,16.01
2022-10-13T09:03:46.306Z,16.00
2022-10-13T09:06:18.413Z,15.99
2022-10-13T09:08:53.635Z,16.08
2022-10-13T09:11:24.020Z,16.17
2022-10-13T09:13:57.821Z,15.98
2022-10-13T09:16:29.051Z,16.00
2022-10-13T09:19:13.288Z,16.01
2022-10-13T09:21:43.323Z,16.04
2022-10-13T09:24:16.602Z,16.09
2022-10-13T09:26:47.153Z,16.19
2022-10-13T09:29:18.414Z,16.21
2022-10-13T09:31:48.132Z,16.23
2022-10-13T09:34:25.036Z,16.29
2022-10-13T09:36:58.143Z,16.31
2022-10-13T09:39:29.888Z,16.42
2022-10-13T09:42:18.249Z,16.45
2022-10-13T09:44:48.329Z,16.59
2022-10-13T09:47:20.869Z,16.67
2022-10-13T09:50:04.696Z,16.69
2022-10-13T09:52:36.834Z,16.74
2022-10-13T09:55:32.150Z,16.80
2022-10-13T09:58:05.828Z,16.80
2022-10-13T10:00:36.735Z,16.87
2022-10-13T10:03:11.523Z,16.98
2022-10-13T10:05:45.839Z,17.03
2022-10-13T10:08:17.854Z,17.07
2022-10-13T10:10:48.973Z,17.19
2022-10-13T10:13:19.006Z,17.26
2022-10-13T10:15:53.826Z,17.24
2022-10-13T10:18:27.489Z,17.30
2022-10-13T10:21:01.586Z,17.41
2022-10-13T10:23:38.216Z,17.43
2022-10-13T10:26:12.932Z,17.47
2022-10-13T10:28:51.797Z,17.47
2022-10-13T10:31:31.323Z,17.52
2022-10-13T10:34:08.136Z,17.52
2022-10-13T10:36:42.891Z,17.40
2022-10-13T10:39:18.905Z,17.48
2022-10-13T10:41:54.393Z,17.54
2022-10-13T10:44:27.113Z,17.51
2022-10-13T10:47:01.008Z,17.54
2022-10-13T10:49:31.867Z,17.59
2022-10-13T10:52:02.693Z,17.66
2022-10-13T10:54:39.862Z,17.74
2022-10-13T10:57:13.957Z,17.81
2022-10-13T10:59:52.755Z,17.79
2022-10-13T11:02:42.314Z,17.79
2022-10-13T11:05:12.839Z,17.86
2022-10-13T11:08:01.060Z,17.86
2022-10-13T11:10:32.030Z,17.86
2022-10-13T11:13:26.187Z,17.86
2022-10-13T11:15:57.939Z,17.92
2022-10-13T11:18:46.610Z,18.04
2022-10-13T11:21:16.184Z,18.06
2022-10-13T11:23:46.701Z,17.98
2022-10-13T11:26:42.598Z,17.91
2022-10-13T11:29:38.746Z,18.08
2022-10-13T11:32:41.402Z,18.10
2022-10-13T11:35:21.640Z,18.07
2022-10-13T11:38:07.171Z,18.11
2022-10-13T11:40:41.484Z,18.03
2022-10-13T11:43:18.332Z,18.02
2022-10-13T11:46:00.129Z,18.02
2022-10-13T11:48:49.966Z,18.06
2022-10-13T11:51:27.286Z,18.06
2022-10-13T11:54:00.848Z,18.04
2022-10-13T11:56:36.323Z,18.04
2022-10-13T11:59:20.329Z,18.00
2022-10-13T12:01:53.957Z,18.06
2022-10-13T12:04:25.835Z,18.14
2022-10-13T12:06:58.346Z,18.08
2022-10-13T12:09:28.771Z,18.03
2022-10-13T12:12:01.354Z,18.01
2022-10-13T12:14:33.255Z,17.94
2022-10-13T12:17:03.507Z,17.89
2022-10-13T12:19:34.779Z,17.89
2022-10-13T12:22:04.331Z,17.90
2022-10-13T12:24:34.036Z,17.94
2022-10-13T12:27:10.992Z,17.98
2022-10-13T12:29:41.604Z,17.95
2022-10-13T12:32:19.811Z,17.88
2022-10-13T12:34:50.874Z,18.00
2022-10-13T12:37:27.165Z,17.97
2022-10-13T12:39:57.625Z,17.87
2022-10-13T12:42:29.861Z,17.84
2022-10-13T12:45:00.100Z,17.89
2022-10-13T12:47:37.771Z,17.90
2022-10-13T12:50:28.515Z,17.95
2022-10-13T12:53:04.760Z,17.94
2022-10-13T12:55:34.516Z,17.98
2022-10-13T12:58:04.194Z,17.95
2022-10-13T13:00:33.884Z,17.91
2022-10-13T13:03:04.831Z,17.89
2022-10-13T13:05:36.067Z,17.94
2022-10-13T13:08:07.962Z,17.91
2022-10-13T13:10:37.665Z,17.90
2022-10-13T13:13:14.367Z,18.00
2022-10-13T13:15:45.642Z,17.99
2022-10-13T13:18:30.451Z,17.90
2022-10-13T13:21:03.525Z,17.98
2022-10-13T13:23:35.929Z,17.98
2022-10-13T13:26:08.291Z,17.97
2022-10-13T13:28:44.231Z,18.01
2022-10-13T13:31:14.671Z,18.02
2022-10-13T13:33:48.054Z,17.97
2022-10-13T13:36:19.123Z,17.89
2022-10-13T13:38:50.159Z,17.83
2022-10-13T13:41:20.022Z,17.92
2022-10-13T13:43:49.666Z,17.90
2022-10-13T13:46:20.566Z,17.98
2022-10-13T13:48:50.382Z,17.97
2022-10-13T13:51:20.092Z,18.03
2022-10-13T13:53:51.116Z,18.01
2022-10-13T13:56:21.548Z,17.97
2022-10-13T13:58:51.385Z,17.90
2022-10-13T14:01:21.353Z,17.88
2022-10-13T14:03:51.163Z,17.83
2022-10-13T14:06:21.926Z,17.80
2022-10-13T14:08:53.270Z,17.83
2022-10-13T14:11:22.973Z,17.80
2022-10-13T14:13:53.296Z,17.72
2022-10-13T14:16:23.378Z,17.66
2022-10-13T14:18:53.016Z,17.64
2022-10-13T14:21:22.880Z,17.66
2022-10-13T14:23:53.783Z,17.65
2022-10-13T14:26:23.890Z,17.58
2022-10-13T14:28:53.443Z,17.56
2022-10-13T14:31:24.351Z,17.56
2022-10-13T14:33:54.553Z,17.53
2022-10-13T14:36:24.324Z,17.51
2022-10-13T14:38:55.341Z,17.51
2022-10-13T14:41:24.951Z,17.43
2022-10-13T14:43:55.417Z,17.42
2022-10-13T14:46:25.479Z,17.47
2022-10-13T14:48:56.038Z,17.50
2022-10-13T14:51:25.999Z,17.43
2022-10-13T14:53:56.886Z,17.34
2022-10-13T14:56:27.532Z,17.31
2022-10-13T14:58:58.197Z,17.27
2022-10-13T15:01:27.856Z,17.29
2022-10-13T15:03:57.483Z,17.26
2022-10-13T15:06:27.619Z,17.25
2022-10-13T15:08:59.067Z,17.28
2022-10-13T15:11:28.822Z,17.30
2022-10-13T15:13:58.896Z,17.23
2022-10-13T15:16:29.887Z,17.14
2022-10-13T15:19:00.353Z,17.07
2022-10-13T15:21:29.916Z,17.03
2022-10-13T15:24:01.502Z,16.98
2022-10-13T15:26:31.310Z,16.94
2022-10-13T15:29:01.118Z,16.88
2022-10-13T15:31:31.490Z,16.80
2022-10-13T15:34:02.004Z,16.76
2022-10-13T15:36:32.920Z,16.69
2022-10-13T15:39:03.983Z,16.64
2022-10-13T15:41:35.430Z,16.63
2022-10-13T15:44:05.069Z,16.59
2022-10-13T15:46:35.085Z,16.54
2022-10-13T15:49:04.970Z,16.51
2022-10-13T15:51:34.601Z,16.46
2022-10-13T15:54:05.621Z,16.41
2022-10-13T15:56:35.203Z,16.40
2022-10-13T15:59:04.973Z,16.36
2022-10-13T16:01:35.078Z,16.34
2022-10-13T16:04:04.842Z,16.33
2022-10-13T16:06:35.853Z,16.32
2022-10-13T16:09:08.414Z,16.28
2022-10-13T16:11:38.036Z,16.28
2022-10-13T16:14:07.909Z,16.25
2022-10-13T16:16:37.572Z,16.24
2022-10-13T16:19:07.295Z,16.18
2022-10-13T16:21:37.412Z,16.14
2022-10-13T16:24:08.939Z,16.09
2022-10-13T16:26:38.478Z,16.07
2022-10-13T16:29:08.146Z,16.02
2022-10-13T16:31:37.881Z,15.94
2022-10-13T16:34:07.711Z,15.89
2022-10-13T16:36:37.419Z,15.86
2022-10-13T16:39:08.644Z,15.82
2022-10-13T16:41:38.894Z,15.77
2022-10-13T16:44:08.400Z,15.74
2022-10-13T16:46:38.013Z,15.72
2022-10-13T16:49:07.697Z,15.65
2022-10-13T16:51:38.777Z,15.63
2022-10-13T16:54:10.843Z,15.56
2022-10-13T16:56:40.374Z,15.53
2022-10-13T16:59:11.413Z,15.49
2022-10-13T17:01:41.389Z,15.50
2022-10-13T17:04:10.921Z,15.49
2022-10-13T17:06:41.043Z,15.42
2022-10-13T17:09:12.424Z,15.40
2022-10-13T17:11:43.499Z,15.32
2022-10-13T17:14:13.447Z,15.32
2022-10-13T17:16:44.241Z,15.23
2022-10-13T17:19:14.052Z,15.25
2022-10-13T17:21:44.244Z,15.21
2022-10-13T17:24:15.611Z,15.15
2022-10-13T17:26:45.689Z,15.08
2022-10-13T17:29:15.278Z,15.06
2022-10-13T17:31:45.277Z,15.03
2022-10-13T17:34:14.905Z,14.99
2022-10-13T17:36:44.592Z,14.88
2022-10-13T17:39:17.661Z,14.89
2022-10-13T17:41:47.294Z,14.90
2022-10-13T17:44:20.519Z,14.91
2022-10-13T17:46:50.149Z,14.86
2022-10-13T17:49:20.078Z,14.85
2022-10-13T17:51:51.736Z,14.85
2022-10-13T17:54:23.139Z,14.80
2022-10-13T17:56:55.956Z,14.77
2022-10-13T17:59:25.595Z,14.91
2022-10-13T18:01:55.459Z,14.96
2022-10-13T18:04:25.389Z,14.95
2022-10-13T18:06:54.888Z,14.88
2022-10-13T18:09:26.096Z,14.79
2022-10-13T18:11:56.109Z,14.66
2022-10-13T18:14:30.291Z,14.66
2022-10-13T18:16:59.799Z,14.61
2022-10-13T18:19:29.743Z,14.55
2022-10-13T18:21:59.343Z,14.50
2022-10-13T18:24:30.229Z,14.48
2022-10-13T18:26:59.847Z,14.43
2022-10-13T18:29:29.591Z,14.42
2022-10-13T18:32:00.462Z,14.30
2022-10-13T18:34:30.371Z,14.22
2022-10-13T18:37:00.238Z,14.18
2022-10-13T18:39:31.843Z,14.15
2022-10-13T18:42:02.016Z,14.13
2022-10-13T18:44:31.560Z,14.13
2022-10-13T18:47:01.387Z,13.98
2022-10-13T18:49:34.146Z,13.96
2022-10-13T18:52:04.303Z,14.02
2022-10-13T18:54:35.343Z,13.99
2022-10-13T18:57:04.927Z,13.86
2022-10-13T18:59:38.702Z,13.76
2022-10-13T19:02:08.387Z,13.78
2022-10-13T19:04:39.396Z,13.66
2022-10-13T19:07:08.990Z,13.64
2022-10-13T19:09:40.354Z,13.58
2022-10-13T19:12:10.394Z,13.50
2022-10-13T19:14:40.353Z,13.46
2022-10-13T19:17:10.246Z,13.50
2022-10-13T19:19:40.808Z,13.51
2022-10-13T19:22:11.016Z,13.35
2022-10-13T19:24:42.076Z,13.27
2022-10-13T19:27:11.638Z,13.35
2022-10-13T19:29:41.333Z,13.33
2022-10-13T19:32:11.434Z,13.21
2022-10-13T19:34:41.095Z,13.23
2022-10-13T19:37:11.213Z,13.29
2022-10-13T19:39:42.497Z,13.24
2022-10-13T19:42:12.038Z,13.28
2022-10-13T19:44:41.858Z,13.21
2022-10-13T19:47:11.541Z,13.17
2022-10-13T19:49:41.098Z,13.15
2022-10-13T19:52:10.952Z,13.17
2022-10-13T19:54:41.950Z,13.19
2022-10-13T19:57:11.787Z,13.20
2022-10-13T19:59:46.716Z,13.20
2022-10-13T20:02:17.239Z,13.04
2022-10-13T20:04:47.092Z,13.09
2022-10-13T20:07:16.624Z,13.15
2022-10-13T20:09:47.945Z,13.06
2022-10-13T20:12:17.509Z,13.13
2022-10-13T20:14:47.929Z,13.15
2022-10-13T20:17:17.482Z,13.10
2022-10-13T20:19:47.041Z,13.09
2022-10-13T20:22:16.598Z,13.17
2022-10-13T20:24:46.134Z,13.12
2022-10-13T20:27:17.143Z,13.14
2022-10-13T20:29:47.160Z,13.16
2022-10-13T20:32:17.420Z,13.15
2022-10-13T20:34:47.103Z,13.10
2022-10-13T20:37:18.435Z,12.96
2022-10-13T20:39:48.578Z,12.98
2022-10-13T20:42:20.792Z,13.01
2022-10-13T20:44:50.639Z,12.97
2022-10-13T20:47:20.581Z,12.94
2022-10-13T20:49:50.204Z,12.79
2022-10-13T20:52:20.378Z,12.92
2022-10-13T20:54:49.957Z,13.01
2022-10-13T20:57:21.392Z,13.11
2022-10-13T20:59:51.400Z,13.00
2022-10-13T21:02:21.525Z,12.98
2022-10-13T21:04:51.139Z,12.94
2022-10-13T21:07:21.221Z,12.93
2022-10-13T21:09:53.842Z,12.82
2022-10-13T21:12:27.119Z,12.82
2022-10-13T21:14:57.067Z,12.87
2022-10-13T21:17:29.973Z,12.87
2022-10-13T21:19:59.675Z,12.68
2022-10-13T21:22:29.303Z,12.55
2022-10-13T21:24:58.938Z,12.51
2022-10-13T21:27:29.803Z,12.62
2022-10-13T21:29:59.602Z,12.61
2022-10-13T21:32:30.882Z,12.63
2022-10-13T21:35:00.947Z,12.55
2022-10-13T21:37:30.471Z,12.53
2022-10-13T21:40:00.058Z,12.51
2022-10-13T21:42:31.959Z,12.62
2022-10-13T21:45:03.134Z,12.53
2022-10-13T21:47:33.367Z,12.54
2022-10-13T21:50:04.393Z,12.51
2022-10-13T21:52:35.470Z,12.46
2022-10-13T21:55:05.339Z,12.46
2022-10-13T21:57:36.456Z,12.55
2022-10-13T22:00:06.886Z,12.47
2022-10-13T22:02:36.674Z,12.52
2022-10-13T22:05:06.912Z,12.49
2022-10-13T22:07:37.164Z,12.45
2022-10-13T22:10:07.120Z,12.48
2022-10-13T22:12:40.363Z,12.47
2022-10-13T22:15:11.310Z,12.43
2022-10-13T22:17:41.359Z,12.43
2022-10-13T22:20:11.279Z,12.33
2022-10-13T22:22:40.913Z,12.31
2022-10-13T22:25:10.862Z,12.42
2022-10-13T22:27:41.843Z,12.22
2022-10-13T22:30:12.016Z,12.36
2022-10-13T22:32:41.933Z,12.25
2022-10-13T22:35:11.906Z,12.27
2022-10-13T22:37:41.844Z,12.26
2022-10-13T22:40:12.029Z,12.22
2022-10-13T22:42:43.126Z,12.25
2022-10-13T22:45:12.738Z,12.28
2022-10-13T22:47:42.462Z,12.02
2022-10-13T22:50:12.256Z,12.15
2022-10-13T22:52:41.935Z,12.04
2022-10-13T22:55:11.837Z,12.12
2022-10-13T22:57:41.478Z,12.00
2022-10-13T23:00:13.247Z,11.88
2022-10-13T23:02:42.946Z,11.97
2022-10-13T23:05:15.878Z,12.06
2022-10-13T23:07:45.467Z,11.91
2022-10-13T23:10:15.213Z,12.00
2022-10-13T23:12:45.272Z,11.99
2022-10-13T23:15:17.115Z,11.90
2022-10-13T23:17:47.134Z,11.94
2022-10-13T23:20:16.796Z,11.96
2022-10-13T23:22:46.564Z,11.95
2022-10-13T23:25:16.182Z,12.04
2022-10-13T23:27:46.037Z,12.07
2022-10-13T23:30:17.064Z,12.10
2022-10-13T23:32:46.620Z,12.12
2022-10-13T23:35:16.215Z,12.11
2022-10-13T23:37:46.127Z,12.14
2022-10-13T23:40:15.811Z,12.12
2022-10-13T23:42:45.590Z,12.25
2022-10-13T23:45:15.175Z,12.25
2022-10-13T23:47:46.197Z,12.21
2022-10-13T23:50:16.124Z,12.22
2022-10-13T23:52:45.672Z,12.24
2022-10-13T23:55:15.403Z,12.32
2022-10-13T23:57:45.084Z,12.39
